createdAt,value
2018-12-01T00:00:43.270Z,1006.20
2018-12-01T00:01:43.246Z,1006.20
2018-12-01T00:02:43.225Z,1006.21
2018-12-01T00:03:43.213Z,1006.22
2018-12-01T00:04:43.189Z,1006.16
2018-12-01T00:05:43.164Z,1006.15
2018-12-01T00:06:43.165Z,1006.16
2018-12-01T00:07:43.128Z,1006.15
2018-12-01T00:08:43.110Z,1006.12
2018-12-01T00:09:43.088Z,1006.15
2018-12-01T00:10:43.064Z,1006.17
2018-12-01T00:11:43.048Z,1006.21
2018-12-01T00:12:43.028Z,1006.16
2018-12-01T00:13:43.009Z,1006.18
2018-12-01T00:14:42.989Z,1006.17
2018-12-01T00:15:42.966Z,1006.17
2018-12-01T00:16:42.956Z,1006.18
2018-12-01T00:17:42.931Z,1006.20
2018-12-01T00:18:42.924Z,1006.15
2018-12-01T00:19:42.903Z,1006.19
2018-12-01T00:20:42.875Z,1006.14
2018-12-01T00:21:42.850Z,1006.17
2018-12-01T00:22:42.833Z,1006.22
2018-12-01T00:23:43.211Z,1006.13
2018-12-01T00:24:42.789Z,1006.14
2018-12-01T00:25:42.769Z,1006.18
2018-12-01T00:26:42.749Z,1006.16
2018-12-01T00:27:42.727Z,1006.17
2018-12-01T00:28:42.708Z,1006.20
2018-12-01T00:29:42.698Z,1006.20
2018-12-01T00:30:42.670Z,1006.23
2018-12-01T00:31:42.645Z,1006.21
2018-12-01T00:32:42.628Z,1006.18
2018-12-01T00:33:42.606Z,1006.18
2018-12-01T00:34:42.588Z,1006.16
2018-12-01T00:35:42.573Z,1006.20
2018-12-01T00:36:42.595Z,1006.15
2018-12-01T00:37:42.528Z,1006.14
2018-12-01T00:38:42.511Z,1006.16
2018-12-01T00:39:42.494Z,1006.16
2018-12-01T00:40:42.470Z,1006.15
2018-12-01T00:41:42.452Z,1006.15
2018-12-01T00:42:42.443Z,1006.12
2018-12-01T00:43:42.408Z,1006.13
2018-12-01T00:44:42.390Z,1006.14
2018-12-01T00:45:42.370Z,1006.13
2018-12-01T00:46:42.347Z,1006.17
2018-12-01T00:47:42.328Z,1006.22
2018-12-01T00:48:42.311Z,1006.20
2018-12-01T00:49:42.299Z,1006.21
2018-12-01T00:50:42.273Z,1006.26
2018-12-01T00:51:42.248Z,1006.22
2018-12-01T00:52:42.229Z,1006.25
2018-12-01T00:53:42.211Z,1006.21
2018-12-01T00:54:42.190Z,1006.27
2018-12-01T00:55:42.169Z,1006.25
2018-12-01T00:56:42.147Z,1006.31
2018-12-01T00:57:42.128Z,1006.31
2018-12-01T00:58:42.109Z,1006.31
2018-12-01T00:59:42.089Z,1006.33
2018-12-01T01:00:42.070Z,1006.29
2018-12-01T01:01:42.048Z,1006.30
2018-12-01T01:02:42.034Z,1006.34
2018-12-01T01:03:42.008Z,1006.37
2018-12-01T01:04:41.989Z,1006.29
2018-12-01T01:05:41.972Z,1006.29
2018-12-01T01:06:41.951Z,1006.28
2018-12-01T01:07:41.929Z,1006.25
2018-12-01T01:08:41.909Z,1006.28
2018-12-01T01:09:41.890Z,1006.28
2018-12-01T01:10:41.870Z,1006.26
2018-12-01T01:11:41.862Z,1006.24
2018-12-01T01:12:41.830Z,1006.24
2018-12-01T01:13:41.811Z,1006.20
2018-12-01T01:14:41.796Z,1006.19
2018-12-01T01:15:41.771Z,1006.17
2018-12-01T01:16:41.750Z,1006.20
2018-12-01T01:17:41.730Z,1006.18
2018-12-01T01:18:41.711Z,1006.20
2018-12-01T01:19:41.690Z,1006.16
2018-12-01T01:20:41.669Z,1006.20
2018-12-01T01:21:41.650Z,1006.21
2018-12-01T01:22:41.633Z,1006.21
2018-12-01T01:23:41.612Z,1006.26
2018-12-01T01:24:41.589Z,1006.30
2018-12-01T01:25:41.569Z,1006.28
2018-12-01T01:26:41.549Z,1006.31
2018-12-01T01:27:41.528Z,1006.29
2018-12-01T01:28:41.517Z,1006.28
2018-12-01T01:29:41.492Z,1006.29
2018-12-01T01:30:41.470Z,1006.31
2018-12-01T01:31:41.450Z,1006.30
2018-12-01T01:32:41.428Z,1006.37
2018-12-01T01:33:41.412Z,1006.33
2018-12-01T01:34:41.397Z,1006.35
2018-12-01T01:35:41.368Z,1006.34
2018-12-01T01:36:41.349Z,1006.38
2018-12-01T01:37:41.333Z,1006.36
2018-12-01T01:38:41.313Z,1006.34
2018-12-01T01:39:41.289Z,1006.36
2018-12-01T01:40:41.269Z,1006.37
2018-12-01T01:41:41.255Z,1006.39
2018-12-01T01:42:41.231Z,1006.37
2018-12-01T01:43:41.209Z,1006.34
2018-12-01T01:44:41.197Z,1006.36
2018-12-01T01:45:41.170Z,1006.29
2018-12-01T01:46:41.149Z,1006.31
2018-12-01T01:47:41.128Z,1006.28
2018-12-01T01:48:41.107Z,1006.23
2018-12-01T01:49:41.088Z,1006.23
2018-12-01T01:50:41.078Z,1006.24
2018-12-01T01:51:41.052Z,1006.20
2018-12-01T01:52:41.037Z,1006.18
2018-12-01T01:53:41.011Z,1006.21
2018-12-01T01:54:40.989Z,1006.24
2018-12-01T01:55:40.966Z,1006.22
2018-12-01T01:56:40.946Z,1006.26
2018-12-01T01:57:40.933Z,1006.25
2018-12-01T01:58:40.909Z,1006.24
2018-12-01T01:59:40.896Z,1006.24
2018-12-01T02:00:40.872Z,1006.21
2018-12-01T02:01:40.848Z,1006.14
2018-12-01T02:02:40.827Z,1006.15
2018-12-01T02:03:40.850Z,1006.14
2018-12-01T02:04:40.787Z,1006.10
2018-12-01T02:05:40.778Z,1006.11
2018-12-01T02:06:40.755Z,1006.11
2018-12-01T02:07:40.729Z,1006.12
2018-12-01T02:08:40.709Z,1006.07
2018-12-01T02:09:40.695Z,1006.07
2018-12-01T02:10:40.672Z,1006.08
2018-12-01T02:11:40.649Z,1006.08
2018-12-01T02:12:40.630Z,1006.04
2018-12-01T02:13:40.607Z,1006.02
2018-12-01T02:14:40.588Z,1006.04
2018-12-01T02:15:40.570Z,1006.04
2018-12-01T02:16:40.547Z,1006.09
2018-12-01T02:17:40.527Z,1006.07
2018-12-01T02:18:40.508Z,1006.07
2018-12-01T02:19:40.492Z,1006.11
2018-12-01T02:20:40.468Z,1006.20
2018-12-01T02:21:40.446Z,1006.19
2018-12-01T02:22:40.426Z,1006.22
2018-12-01T02:23:40.404Z,1006.22
2018-12-01T02:24:40.384Z,1006.17
2018-12-01T02:25:40.364Z,1006.23
2018-12-01T02:26:40.347Z,1006.18
2018-12-01T02:27:40.323Z,1006.23
2018-12-01T02:28:40.300Z,1006.20
2018-12-01T02:29:40.284Z,1006.19
2018-12-01T02:30:40.271Z,1006.19
2018-12-01T02:31:40.241Z,1006.19
2018-12-01T02:32:40.233Z,1006.17
2018-12-01T02:33:40.201Z,1006.19
2018-12-01T02:34:40.190Z,1006.18
2018-12-01T02:35:40.161Z,1006.22
2018-12-01T02:36:40.141Z,1006.20
2018-12-01T02:37:40.122Z,1006.23
2018-12-01T02:38:40.111Z,1006.22
2018-12-01T02:39:40.080Z,1006.19
2018-12-01T02:40:40.060Z,1006.20
2018-12-01T02:41:40.038Z,1006.17
2018-12-01T02:42:40.024Z,1006.14
2018-12-01T02:43:39.998Z,1006.12
2018-12-01T02:44:39.981Z,1006.09
2018-12-01T02:45:39.963Z,1006.10
2018-12-01T02:46:39.941Z,1006.07
2018-12-01T02:47:39.922Z,1006.10
2018-12-01T02:48:39.896Z,1006.07
2018-12-01T02:49:39.879Z,1006.07
2018-12-01T02:50:39.857Z,1006.08
2018-12-01T02:51:39.838Z,1006.11
2018-12-01T02:52:39.815Z,1006.13
2018-12-01T02:53:39.798Z,1006.16
2018-12-01T02:54:39.789Z,1006.14
2018-12-01T02:55:39.755Z,1006.12
2018-12-01T02:56:39.734Z,1006.17
2018-12-01T02:57:39.726Z,1006.14
2018-12-01T02:58:39.701Z,1006.16
2018-12-01T02:59:39.675Z,1006.16
2018-12-01T03:00:39.653Z,1006.12
2018-12-01T03:01:39.635Z,1006.11
2018-12-01T03:02:39.614Z,1006.14
2018-12-01T03:03:39.593Z,1006.13
2018-12-01T03:04:39.577Z,1006.14
2018-12-01T03:05:39.554Z,1006.17
2018-12-01T03:06:39.540Z,1006.17
2018-12-01T03:07:39.513Z,1006.20
2018-12-01T03:08:39.503Z,1006.21
2018-12-01T03:09:39.483Z,1006.26
2018-12-01T03:10:39.459Z,1006.24
2018-12-01T03:11:39.433Z,1006.22
2018-12-01T03:12:39.412Z,1006.15
2018-12-01T03:13:39.394Z,1006.15
2018-12-01T03:14:39.373Z,1006.19
2018-12-01T03:15:39.352Z,1006.15
2018-12-01T03:16:39.336Z,1006.15
2018-12-01T03:17:39.311Z,1006.13
2018-12-01T03:18:39.298Z,1006.14
2018-12-01T03:19:39.275Z,1006.14
2018-12-01T03:20:39.251Z,1006.12
2018-12-01T03:21:39.231Z,1006.14
2018-12-01T03:22:39.224Z,1006.14
2018-12-01T03:23:39.189Z,1006.14
2018-12-01T03:24:39.169Z,1006.13
2018-12-01T03:25:39.150Z,1006.16
2018-12-01T03:26:39.133Z,1006.21
2018-12-01T03:27:39.109Z,1006.25
2018-12-01T03:28:39.086Z,1006.20
2018-12-01T03:29:39.068Z,1006.23
2018-12-01T03:30:39.093Z,1006.23
2018-12-01T03:31:39.027Z,1006.23
2018-12-01T03:32:39.006Z,1006.22
2018-12-01T03:33:38.986Z,1006.24
2018-12-01T03:34:38.967Z,1006.23
2018-12-01T03:35:38.946Z,1006.22
2018-12-01T03:36:38.929Z,1006.17
2018-12-01T03:37:38.906Z,1006.17
2018-12-01T03:38:38.886Z,1006.15
2018-12-01T03:39:38.865Z,1006.15
2018-12-01T03:40:38.845Z,1006.16
2018-12-01T03:41:38.824Z,1006.15
2018-12-01T03:42:38.806Z,1006.15
2018-12-01T03:43:38.796Z,1006.16
2018-12-01T03:44:38.772Z,1006.14
2018-12-01T03:45:38.744Z,1006.15
2018-12-01T03:46:38.723Z,1006.13
2018-12-01T03:47:38.702Z,1006.20
2018-12-01T03:48:38.687Z,1006.14
2018-12-01T03:49:38.663Z,1006.15
2018-12-01T03:50:38.642Z,1006.17
2018-12-01T03:51:38.635Z,1006.17
2018-12-01T03:52:38.606Z,1006.17
2018-12-01T03:53:38.578Z,1006.17
2018-12-01T03:54:38.559Z,1006.17
2018-12-01T03:55:38.542Z,1006.20
2018-12-01T03:56:38.522Z,1006.20
2018-12-01T03:57:38.499Z,1006.21
2018-12-01T03:58:38.481Z,1006.21
2018-12-01T03:59:38.458Z,1006.16
2018-12-01T04:00:38.438Z,1006.18
2018-12-01T04:01:38.417Z,1006.19
2018-12-01T04:02:38.396Z,1006.19
2018-12-01T04:03:38.380Z,1006.21
2018-12-01T04:04:38.357Z,1006.19
2018-12-01T04:05:38.336Z,1006.21
2018-12-01T04:06:38.329Z,1006.21
2018-12-01T04:07:38.293Z,1006.22
2018-12-01T04:08:38.286Z,1006.25
2018-12-01T04:09:38.256Z,1006.27
2018-12-01T04:10:38.236Z,1006.22
2018-12-01T04:11:38.214Z,1006.21
2018-12-01T04:12:38.193Z,1006.20
2018-12-01T04:13:38.177Z,1006.19
2018-12-01T04:14:38.161Z,1006.21
2018-12-01T04:15:38.134Z,1006.17
2018-12-01T04:16:38.113Z,1006.13
2018-12-01T04:17:38.092Z,1006.19
2018-12-01T04:18:38.073Z,1006.20
2018-12-01T04:19:38.049Z,1006.22
2018-12-01T04:20:38.033Z,1006.22
2018-12-01T04:21:38.012Z,1006.26
2018-12-01T04:22:37.991Z,1006.23
2018-12-01T04:23:37.966Z,1006.28
2018-12-01T04:24:37.947Z,1006.20
2018-12-01T04:25:37.925Z,1006.26
2018-12-01T04:26:37.908Z,1006.23
2018-12-01T04:27:37.888Z,1006.23
2018-12-01T04:28:37.875Z,1006.26
2018-12-01T04:29:37.853Z,1006.28
2018-12-01T04:30:37.824Z,1006.26
2018-12-01T04:31:37.805Z,1006.31
2018-12-01T04:32:37.792Z,1006.27
2018-12-01T04:33:37.763Z,1006.28
2018-12-01T04:34:37.751Z,1006.29
2018-12-01T04:35:37.724Z,1006.30
2018-12-01T04:36:37.702Z,1006.30
2018-12-01T04:37:37.682Z,1006.26
2018-12-01T04:38:37.663Z,1006.30
2018-12-01T04:39:37.642Z,1006.31
2018-12-01T04:40:37.620Z,1006.30
2018-12-01T04:41:37.609Z,1006.30
2018-12-01T04:42:37.579Z,1006.25
2018-12-01T04:43:37.557Z,1006.33
2018-12-01T04:44:37.536Z,1006.35
2018-12-01T04:45:37.517Z,1006.35
2018-12-01T04:46:37.497Z,1006.38
2018-12-01T04:47:37.475Z,1006.38
2018-12-01T04:48:37.460Z,1006.42
2018-12-01T04:49:37.434Z,1006.45
2018-12-01T04:50:37.416Z,1006.45
2018-12-01T04:51:37.397Z,1006.45
2018-12-01T04:52:37.374Z,1006.44
2018-12-01T04:53:37.366Z,1006.45
2018-12-01T04:54:37.337Z,1006.43
2018-12-01T04:55:37.318Z,1006.45
2018-12-01T04:56:37.291Z,1006.45
2018-12-01T04:57:37.274Z,1006.44
2018-12-01T04:58:37.252Z,1006.49
2018-12-01T04:59:37.229Z,1006.50
2018-12-01T05:00:37.210Z,1006.50
2018-12-01T05:01:37.188Z,1006.53
2018-12-01T05:02:37.169Z,1006.55
2018-12-01T05:03:37.156Z,1006.55
2018-12-01T05:04:37.128Z,1006.53
2018-12-01T05:05:37.112Z,1006.63
2018-12-01T05:06:37.090Z,1006.62
2018-12-01T05:07:37.066Z,1006.63
2018-12-01T05:08:37.048Z,1006.61
2018-12-01T05:09:37.032Z,1006.52
2018-12-01T05:10:37.012Z,1006.60
2018-12-01T05:11:36.987Z,1006.61
2018-12-01T05:12:36.967Z,1006.65
2018-12-01T05:13:36.951Z,1006.65
2018-12-01T05:14:36.926Z,1006.66
2018-12-01T05:15:36.909Z,1006.65
2018-12-01T05:16:36.884Z,1006.64
2018-12-01T05:17:36.866Z,1006.65
2018-12-01T05:18:36.846Z,1006.62
2018-12-01T05:19:36.824Z,1006.65
2018-12-01T05:20:36.811Z,1006.60
2018-12-01T05:21:36.786Z,1006.61
2018-12-01T05:22:36.767Z,1006.58
2018-12-01T05:23:36.746Z,1006.61
2018-12-01T05:24:36.722Z,1006.58
2018-12-01T05:25:36.713Z,1006.60
2018-12-01T05:26:36.681Z,1006.60
2018-12-01T05:27:36.662Z,1006.65
2018-12-01T05:28:36.641Z,1006.63
2018-12-01T05:29:36.619Z,1006.62
2018-12-01T05:30:36.602Z,1006.63
2018-12-01T05:31:36.579Z,1006.66
2018-12-01T05:32:36.560Z,1006.61
2018-12-01T05:33:36.544Z,1006.66
2018-12-01T05:34:36.517Z,1006.66
2018-12-01T05:35:36.503Z,1006.62
2018-12-01T05:36:36.482Z,1006.63
2018-12-01T05:37:36.456Z,1006.61
2018-12-01T05:38:36.435Z,1006.59
2018-12-01T05:39:36.418Z,1006.61
2018-12-01T05:40:36.400Z,1006.57
2018-12-01T05:41:36.379Z,1006.63
2018-12-01T05:42:36.356Z,1006.58
2018-12-01T05:43:36.333Z,1006.58
2018-12-01T05:44:36.313Z,1006.58
2018-12-01T05:45:36.292Z,1006.63
2018-12-01T05:46:36.848Z,1006.62
2018-12-01T05:47:36.253Z,1006.62
2018-12-01T05:48:36.232Z,1006.69
2018-12-01T05:49:36.211Z,1006.68
2018-12-01T05:50:36.200Z,1006.65
2018-12-01T05:51:36.172Z,1006.65
2018-12-01T05:52:36.154Z,1006.63
2018-12-01T05:53:36.135Z,1006.66
2018-12-01T05:54:36.110Z,1006.63
2018-12-01T05:55:36.091Z,1006.60
2018-12-01T05:56:36.068Z,1006.60
2018-12-01T05:57:36.051Z,1006.59
2018-12-01T05:58:36.028Z,1006.58
2018-12-01T05:59:36.011Z,1006.54
2018-12-01T06:00:35.993Z,1006.54
2018-12-01T06:01:35.969Z,1006.57
2018-12-01T06:02:35.948Z,1006.53
2018-12-01T06:03:35.928Z,1006.56
2018-12-01T06:04:35.907Z,1006.59
2018-12-01T06:05:35.886Z,1006.56
2018-12-01T06:06:35.867Z,1006.53
2018-12-01T06:07:35.847Z,1006.57
2018-12-01T06:08:35.826Z,1006.53
2018-12-01T06:09:35.814Z,1006.54
2018-12-01T06:10:35.789Z,1006.56
2018-12-01T06:11:35.767Z,1006.57
2018-12-01T06:12:35.744Z,1006.55
2018-12-01T06:13:35.727Z,1006.49
2018-12-01T06:14:35.718Z,1006.49
2018-12-01T06:15:35.684Z,1006.45
2018-12-01T06:16:35.664Z,1006.50
2018-12-01T06:17:35.643Z,1006.48
2018-12-01T06:18:35.623Z,1006.47
2018-12-01T06:19:35.603Z,1006.45
2018-12-01T06:20:35.581Z,1006.42
2018-12-01T06:21:35.563Z,1006.42
2018-12-01T06:22:35.544Z,1006.40
2018-12-01T06:23:35.532Z,1006.43
2018-12-01T06:24:35.504Z,1006.41
2018-12-01T06:25:35.477Z,1006.43
2018-12-01T06:26:35.461Z,1006.41
2018-12-01T06:27:35.436Z,1006.40
2018-12-01T06:28:35.422Z,1006.35
2018-12-01T06:29:35.400Z,1006.43
2018-12-01T06:30:35.377Z,1006.39
2018-12-01T06:31:35.366Z,1006.33
2018-12-01T06:32:35.341Z,1006.33
2018-12-01T06:33:35.322Z,1006.28
2018-12-01T06:34:35.298Z,1006.28
2018-12-01T06:35:35.285Z,1006.27
2018-12-01T06:36:35.256Z,1006.29
2018-12-01T06:37:35.236Z,1006.29
2018-12-01T06:38:35.217Z,1006.36
2018-12-01T06:39:35.196Z,1006.35
2018-12-01T06:40:35.179Z,1006.31
2018-12-01T06:41:35.158Z,1006.33
2018-12-01T06:42:35.140Z,1006.33
2018-12-01T06:43:35.114Z,1006.34
2018-12-01T06:44:35.102Z,1006.33
2018-12-01T06:45:35.422Z,1006.37
2018-12-01T06:46:35.055Z,1006.39
2018-12-01T06:47:35.039Z,1006.37
2018-12-01T06:48:35.019Z,1006.42
2018-12-01T06:49:34.996Z,1006.42
2018-12-01T06:50:34.972Z,1006.41
2018-12-01T06:51:34.950Z,1006.42
2018-12-01T06:52:34.943Z,1006.43
2018-12-01T06:53:34.913Z,1006.43
2018-12-01T06:54:34.910Z,1006.39
2018-12-01T06:55:34.873Z,1006.38
2018-12-01T06:56:34.855Z,1006.43
2018-12-01T06:57:34.829Z,1006.42
2018-12-01T06:58:34.822Z,1006.42
2018-12-01T06:59:34.788Z,1006.49
2018-12-01T07:00:34.769Z,1006.47
2018-12-01T07:01:34.759Z,1006.46
2018-12-01T07:02:34.735Z,1006.47
2018-12-01T07:03:34.709Z,1006.44
2018-12-01T07:04:34.689Z,1006.52
2018-12-01T07:05:34.669Z,1006.48
2018-12-01T07:06:34.649Z,1006.49
2018-12-01T07:07:34.627Z,1006.47
2018-12-01T07:08:34.608Z,1006.40
2018-12-01T07:09:34.589Z,1006.46
2018-12-01T07:10:34.571Z,1006.49
2018-12-01T07:11:34.550Z,1006.50
2018-12-01T07:12:34.527Z,1006.47
2018-12-01T07:13:34.506Z,1006.54
2018-12-01T07:14:34.486Z,1006.51
2018-12-01T07:15:34.466Z,1006.52
2018-12-01T07:16:34.444Z,1006.48
2018-12-01T07:17:34.429Z,1006.48
2018-12-01T07:18:34.409Z,1006.48
2018-12-01T07:19:34.386Z,1006.52
2018-12-01T07:20:34.373Z,1006.48
2018-12-01T07:21:34.358Z,1006.49
2018-12-01T07:22:34.325Z,1006.47
2018-12-01T07:23:34.303Z,1006.44
2018-12-01T07:24:34.283Z,1006.42
2018-12-01T07:25:34.273Z,1006.40
2018-12-01T07:26:34.256Z,1006.37
2018-12-01T07:27:34.227Z,1006.39
2018-12-01T07:28:34.204Z,1006.36
2018-12-01T07:29:34.183Z,1006.40
2018-12-01T07:30:34.166Z,1006.41
2018-12-01T07:31:34.145Z,1006.40
2018-12-01T07:32:34.123Z,1006.40
2018-12-01T07:33:34.104Z,1006.36
2018-12-01T07:34:34.081Z,1006.37
2018-12-01T07:35:34.062Z,1006.35
2018-12-01T07:36:34.042Z,1006.33
2018-12-01T07:37:34.027Z,1006.35
2018-12-01T07:38:34.003Z,1006.36
2018-12-01T07:39:33.981Z,1006.36
2018-12-01T07:40:33.967Z,1006.43
2018-12-01T07:41:33.940Z,1006.39
2018-12-01T07:42:33.922Z,1006.47
2018-12-01T07:43:33.905Z,1006.44
2018-12-01T07:44:33.881Z,1006.49
2018-12-01T07:45:33.873Z,1006.46
2018-12-01T07:46:33.849Z,1006.44
2018-12-01T07:47:33.821Z,1006.45
2018-12-01T07:48:33.803Z,1006.45
2018-12-01T07:49:33.780Z,1006.44
2018-12-01T07:50:33.760Z,1006.45
2018-12-01T07:51:33.742Z,1006.47
2018-12-01T07:52:33.730Z,1006.45
2018-12-01T07:53:33.705Z,1006.52
2018-12-01T07:54:33.682Z,1006.45
2018-12-01T07:55:33.665Z,1006.47
2018-12-01T07:56:33.645Z,1006.54
2018-12-01T07:57:33.624Z,1006.56
2018-12-01T07:58:33.601Z,1006.60
2018-12-01T07:59:33.581Z,1006.65
2018-12-01T08:00:33.572Z,1006.60
2018-12-01T08:01:33.542Z,1006.62
2018-12-01T08:02:33.530Z,1006.67
2018-12-01T08:03:33.508Z,1006.64
2018-12-01T08:04:33.485Z,1006.57
2018-12-01T08:05:33.465Z,1006.60
2018-12-01T08:06:33.448Z,1006.57
2018-12-01T08:07:33.423Z,1006.57
2018-12-01T08:08:33.408Z,1006.53
2018-12-01T08:09:33.390Z,1006.44
2018-12-01T08:10:33.365Z,1006.44
2018-12-01T08:11:33.349Z,1006.42
2018-12-01T08:12:33.330Z,1006.39
2018-12-01T08:13:33.308Z,1006.41
2018-12-01T08:14:33.290Z,1006.36
2018-12-01T08:15:33.267Z,1006.49
2018-12-01T08:16:33.256Z,1006.53
2018-12-01T08:17:33.240Z,1006.65
2018-12-01T08:18:33.212Z,1006.60
2018-12-01T08:19:33.189Z,1006.64
2018-12-01T08:20:33.174Z,1006.66
2018-12-01T08:21:33.157Z,1006.62
2018-12-01T08:22:33.140Z,1006.64
2018-12-01T08:23:33.120Z,1006.70
2018-12-01T08:24:33.098Z,1006.73
2018-12-01T08:25:33.082Z,1006.81
2018-12-01T08:26:33.060Z,1006.68
2018-12-01T08:27:33.042Z,1006.70
2018-12-01T08:28:33.025Z,1006.62
2018-12-01T08:29:33.004Z,1006.65
2018-12-01T08:30:33.000Z,1006.65
2018-12-01T08:31:32.969Z,1006.68
2018-12-01T08:32:32.952Z,1006.67
2018-12-01T08:33:32.950Z,1006.72
2018-12-01T08:34:32.918Z,1006.69
2018-12-01T08:35:32.896Z,1006.69
2018-12-01T08:36:32.879Z,1006.65
2018-12-01T08:37:32.873Z,1006.61
2018-12-01T08:38:32.843Z,1006.62
2018-12-01T08:39:32.827Z,1006.58
2018-12-01T08:40:32.800Z,1006.53
2018-12-01T08:41:32.783Z,1006.49
2018-12-01T08:42:32.765Z,1006.52
2018-12-01T08:43:32.745Z,1006.51
2018-12-01T08:44:32.726Z,1006.48
2018-12-01T08:45:32.716Z,1006.48
2018-12-01T08:46:32.687Z,1006.49
2018-12-01T08:47:32.668Z,1006.56
2018-12-01T08:48:32.658Z,1006.51
2018-12-01T08:49:32.630Z,1006.54
2018-12-01T08:50:32.612Z,1006.56
2018-12-01T08:51:32.604Z,1006.58
2018-12-01T08:52:32.571Z,1006.61
2018-12-01T08:53:32.555Z,1006.60
2018-12-01T08:54:32.538Z,1006.64
2018-12-01T08:55:32.520Z,1006.63
2018-12-01T08:56:32.496Z,1006.68
2018-12-01T08:57:32.478Z,1006.82
2018-12-01T08:58:32.457Z,1006.84
2018-12-01T08:59:32.438Z,1006.92
2018-12-01T09:00:32.425Z,1007.02
2018-12-01T09:01:32.403Z,1006.99
2018-12-01T09:02:32.386Z,1007.03
2018-12-01T09:03:32.366Z,1007.04
2018-12-01T09:04:32.353Z,1007.08
2018-12-01T09:05:32.340Z,1007.01
2018-12-01T09:06:32.316Z,1006.98
2018-12-01T09:07:32.305Z,1007.01
2018-12-01T09:08:32.282Z,1007.09
2018-12-01T09:09:32.267Z,1007.18
2018-12-01T09:10:32.254Z,1007.20
2018-12-01T09:11:32.238Z,1007.21
2018-12-01T09:12:32.230Z,1007.25
2018-12-01T09:13:32.213Z,1007.14
2018-12-01T09:14:32.196Z,1007.27
2018-12-01T09:15:36.741Z,1007.32
2018-12-01T09:16:32.171Z,1007.45
2018-12-01T09:17:32.161Z,1007.46
2018-12-01T09:18:32.145Z,1007.35
2018-12-01T09:19:32.135Z,1007.30
2018-12-01T09:20:32.119Z,1007.23
2018-12-01T09:21:32.109Z,1007.26
2018-12-01T09:22:32.103Z,1007.17
2018-12-01T09:23:32.078Z,1007.16
2018-12-01T09:24:32.070Z,1007.20
2018-12-01T09:25:32.061Z,1007.23
2018-12-01T09:26:32.052Z,1007.15
2018-12-01T09:27:32.033Z,1007.25
2018-12-01T09:28:32.015Z,1007.08
2018-12-01T09:29:32.006Z,1007.15
2018-12-01T09:30:31.992Z,1007.26
2018-12-01T09:31:31.979Z,1006.88
2018-12-01T09:32:31.960Z,1006.94
2018-12-01T09:33:31.949Z,1006.93
2018-12-01T09:34:31.933Z,1006.94
2018-12-01T09:35:31.925Z,1006.91
2018-12-01T09:36:31.911Z,1007.18
2018-12-01T09:37:31.895Z,1006.98
2018-12-01T09:38:31.887Z,1006.97
2018-12-01T09:39:31.867Z,1007.04
2018-12-01T09:40:31.853Z,1007.07
2018-12-01T09:41:31.842Z,1007.12
2018-12-01T09:42:31.823Z,1007.03
2018-12-01T09:43:31.807Z,1006.95
2018-12-01T09:44:31.803Z,1007.04
2018-12-01T09:45:31.782Z,1006.99
2018-12-01T09:46:31.767Z,1006.91
2018-12-01T09:47:31.751Z,1006.92
2018-12-01T09:48:31.745Z,1006.87
2018-12-01T09:49:31.733Z,1006.92
2018-12-01T09:50:31.725Z,1006.93
2018-12-01T09:51:31.693Z,1006.95
2018-12-01T09:52:31.678Z,1006.99
2018-12-01T09:53:31.673Z,1006.98
2018-12-01T09:54:31.659Z,1007.05
2018-12-01T09:55:31.634Z,1007.34
2018-12-01T09:56:31.620Z,1008.16
2018-12-01T09:57:31.606Z,1007.53
2018-12-01T09:58:31.595Z,1007.78
2018-12-01T09:59:31.574Z,1007.88
2018-12-01T10:00:31.566Z,1007.78
2018-12-01T10:01:31.545Z,1007.25
2018-12-01T10:02:31.543Z,1007.75
2018-12-01T10:03:31.520Z,1007.86
2018-12-01T10:04:31.504Z,1007.97
2018-12-01T10:05:31.494Z,1007.87
2018-12-01T10:06:31.479Z,1007.45
2018-12-01T10:07:31.478Z,1007.50
2018-12-01T10:08:31.465Z,1007.61
2018-12-01T10:09:31.443Z,1007.37
2018-12-01T10:10:31.435Z,1007.42
2018-12-01T10:11:31.421Z,1007.39
2018-12-01T10:12:31.410Z,1007.46
2018-12-01T10:13:31.392Z,1007.63
2018-12-01T10:14:31.388Z,1007.67
2018-12-01T10:15:31.379Z,1007.75
2018-12-01T10:16:31.355Z,1007.34
2018-12-01T10:17:31.355Z,1007.20
2018-12-01T10:18:31.333Z,1007.03
2018-12-01T10:19:31.319Z,1007.08
2018-12-01T10:20:31.305Z,1007.15
2018-12-01T10:21:31.300Z,1007.30
2018-12-01T10:22:31.281Z,1007.06
2018-12-01T10:23:31.266Z,1007.21
2018-12-01T10:24:31.258Z,1007.18
2018-12-01T10:25:31.242Z,1007.16
2018-12-01T10:26:31.232Z,1007.34
2018-12-01T10:27:31.216Z,1007.32
2018-12-01T10:28:31.203Z,1007.11
2018-12-01T10:29:31.199Z,1007.12
2018-12-01T10:30:31.180Z,1007.19
2018-12-01T10:31:31.168Z,1007.02
2018-12-01T10:32:31.159Z,1007.12
2018-12-01T10:33:31.147Z,1006.99
2018-12-01T10:34:31.142Z,1006.92
2018-12-01T10:35:31.118Z,1007.02
2018-12-01T10:36:31.111Z,1006.98
2018-12-01T10:37:31.095Z,1007.02
2018-12-01T10:38:31.089Z,1006.90
2018-12-01T10:39:31.075Z,1007.01
2018-12-01T10:40:31.063Z,1006.85
2018-12-01T10:41:31.047Z,1006.62
2018-12-01T10:42:31.038Z,1006.59
2018-12-01T10:43:31.027Z,1006.52
2018-12-01T10:44:31.013Z,1006.41
2018-12-01T10:45:31.000Z,1006.44
2018-12-01T10:46:30.986Z,1006.42
2018-12-01T10:47:30.974Z,1006.45
2018-12-01T10:48:30.962Z,1006.88
2018-12-01T10:49:30.957Z,1006.64
2018-12-01T10:50:30.943Z,1006.55
2018-12-01T10:51:30.919Z,1006.47
2018-12-01T10:52:30.904Z,1006.47
2018-12-01T10:53:30.892Z,1006.54
2018-12-01T10:54:30.878Z,1006.57
2018-12-01T10:55:30.864Z,1006.90
2018-12-01T10:56:30.855Z,1006.88
2018-12-01T10:57:30.834Z,1006.90
2018-12-01T10:58:30.832Z,1006.85
2018-12-01T10:59:30.805Z,1006.81
2018-12-01T11:00:30.792Z,1006.79
2018-12-01T11:01:30.772Z,1006.59
2018-12-01T11:02:30.769Z,1006.67
2018-12-01T11:03:30.748Z,1006.61
2018-12-01T11:04:30.733Z,1006.68
2018-12-01T11:05:30.720Z,1006.63
2018-12-01T11:06:30.706Z,1006.87
2018-12-01T11:07:30.692Z,1006.64
2018-12-01T11:08:30.680Z,1006.49
2018-12-01T11:09:30.667Z,1006.42
2018-12-01T11:10:30.652Z,1006.76
2018-12-01T11:11:30.642Z,1006.70
2018-12-01T11:12:30.624Z,1006.70
2018-12-01T11:13:30.614Z,1006.41
2018-12-01T11:14:30.608Z,1006.26
2018-12-01T11:15:30.590Z,1006.20
2018-12-01T11:16:30.574Z,1006.18
2018-12-01T11:17:30.559Z,1006.26
2018-12-01T11:18:30.545Z,1006.25
2018-12-01T11:19:30.531Z,1006.27
2018-12-01T11:20:30.516Z,1006.21
2018-12-01T11:21:30.503Z,1006.20
2018-12-01T11:22:30.505Z,1006.21
2018-12-01T11:23:30.477Z,1006.11
2018-12-01T11:24:30.457Z,1006.11
2018-12-01T11:25:30.442Z,1006.11
2018-12-01T11:26:30.430Z,1006.08
2018-12-01T11:27:30.427Z,1006.07
2018-12-01T11:28:30.399Z,1006.03
2018-12-01T11:29:30.384Z,1006.06
2018-12-01T11:30:30.369Z,1006.00
2018-12-01T11:31:30.349Z,1006.01
2018-12-01T11:32:30.333Z,1006.01
2018-12-01T11:33:30.321Z,1006.04
2018-12-01T11:34:30.307Z,1006.03
2018-12-01T11:35:30.287Z,1005.99
2018-12-01T11:36:30.274Z,1005.99
2018-12-01T11:37:30.258Z,1006.01
2018-12-01T11:38:30.239Z,1005.96
2018-12-01T11:39:30.231Z,1005.96
2018-12-01T11:40:30.205Z,1005.95
2018-12-01T11:41:30.193Z,1005.93
2018-12-01T11:42:30.183Z,1005.86
2018-12-01T11:43:30.161Z,1005.98
2018-12-01T11:44:30.141Z,1005.83
2018-12-01T11:45:30.127Z,1005.86
2018-12-01T11:46:30.119Z,1005.99
2018-12-01T11:47:30.097Z,1005.94
2018-12-01T11:48:30.075Z,1005.89
2018-12-01T11:49:30.057Z,1005.90
2018-12-01T11:50:30.040Z,1005.83
2018-12-01T11:51:30.032Z,1005.86
2018-12-01T11:52:30.005Z,1005.86
2018-12-01T11:53:29.993Z,1005.88
2018-12-01T11:54:29.970Z,1005.83
2018-12-01T11:55:29.972Z,1005.83
2018-12-01T11:56:29.947Z,1005.83
2018-12-01T11:57:29.929Z,1005.81
2018-12-01T11:58:29.907Z,1005.76
2018-12-01T11:59:29.889Z,1005.75
2018-12-01T12:00:29.871Z,1005.61
2018-12-01T12:01:29.865Z,1005.66
2018-12-01T12:02:29.835Z,1005.62
2018-12-01T12:03:29.822Z,1005.57
2018-12-01T12:04:29.810Z,1005.58
2018-12-01T12:05:29.783Z,1005.62